Arlington, New Jersey
Current Conditions -  °F | °C
As of 5:51 PM on Saturday 25 Oct 2014 (Local Time) from KEWR Reporting Station
Scattered Clouds Scattered Clouds  
Wind Chill: 65°   Ceiling: Unl
Heat Index: 65°   Visibility: 10mi
Dew Point: 43°   Wind: 14mph
Humidity: 45%   Direction: 230°SW
Pressure: 29.65"   Gusts: NA
Location:  40.7563°N, 74.1217°W
Report Text: KEWR 252151Z 23012KT 10SM FEW060 SCT250 18/06 A2965 RMK AO2 SLP040 T01830061
Loading
Personal Weather Stations






























Interactive Weather Map
Tropical Storm Tracking
New forecast layout! Learn more

10-Day Weather Forecast

Advertisements
Track Severe Weather on mobile